Terminal Aerodrome Forecast
Issued by NWS Albany, NY

Home | Current Version | Previous Version | Text Only | Print | Product List | Glossary On
Versions: 1 2 3 4 5 6 7 8 9 10 11
000
FTUS41 KALY 290300 AAA
TAFPOU
TAF AMD
KPOU 290348Z 2904/2924 32008KT P6SM SCT045 BKN250
      TEMPO 2904/2908 29008G18KT BKN045
     FM290800 32005KT P6SM FEW045 BKN250=

USA.gov is the U.S. government's official web portal to all federal, state and local government web resources and services.